Time;durP1;ratioP1;P1;durP2;ratioP2;P2;SDS_P1;SDS_P2;PMS_P1;PMS_P2;Temp;Humidity;BMP_temperature;BMP_pressure;BME280_temperature;BME280_humidity;BME280_pressure;Samples;Min_cycle;Max_cycle;Signal;HPM_P1;HPM_P2
2023/05/06 00:00:50;;;;;;;;;;;;;;;27.77;34.81;101247.22;4131718;28;20426;-76
2023/05/06 00:02:51;;;;;;;;;;;;;;;27.78;34.73;101248.06;4131866;28;19922;-77
2023/05/06 00:04:53;;;;;;;;;;;;;;;27.79;34.71;101252.47;4133149;28;19937;-77
2023/05/06 00:06:56;;;;;;;;;;;;;;;27.79;34.79;101255.19;4133004;28;19948;-77
2023/05/06 00:08:57;;;;;;;;;;;;;;;27.79;34.60;101245.22;4132943;28;19922;-77
2023/05/06 00:10:59;;;;;;;;;;;;;;;27.81;34.51;101245.91;4132820;28;19921;-77
2023/05/06 00:13:00;;;;;;;;;;;;;;;27.83;34.56;101259.28;4132188;28;20380;-77
2023/05/06 00:15:03;;;;;;;;;;;;;;;27.83;34.85;101251.19;4133027;28;19949;-77
2023/05/06 00:17:04;;;;;;;;;;;;;;;27.81;34.85;101245.06;4133201;28;19980;-77
2023/05/06 00:19:06;;;;;;;;;;;;;;;27.81;34.94;101247.78;4132899;28;19983;-77
2023/05/06 00:21:07;;;;;;;;;;;;;;;27.80;34.84;101246.91;4132987;28;19929;-77
2023/05/06 00:23:09;;;;;;;;;;;;;;;27.81;34.54;101250.47;4131694;28;19929;-76
2023/05/06 00:25:11;;;;;;;;;;;;;;;27.81;34.48;101245.06;4132561;28;19929;-77
2023/05/06 00:27:13;;;;;;;;;;;;;;;27.82;34.84;101246.78;4132715;28;20333;-77
2023/05/06 00:29:14;;;;;;;;;;;;;;;27.82;34.59;101250.31;4132618;28;19944;-76
2023/05/06 00:31:16;;;;;;;;;;;;;;;27.83;34.47;101245.78;4133050;28;19980;-76
2023/05/06 00:33:17;;;;;;;;;;;;;;;27.83;34.46;101243.91;4131911;28;20288;-76
2023/05/06 00:35:19;;;;;;;;;;;;;;;27.84;34.41;101239.34;4132802;28;19922;-76
2023/05/06 00:37:21;;;;;;;;;;;;;;;27.86;34.59;101237.34;4132636;28;19976;-76
2023/05/06 00:39:23;;;;;;;;;;;;;;;27.84;34.40;101237.50;4132030;28;19949;-76
2023/05/06 00:41:25;;;;;;;;;;;;;;;27.84;34.83;101236.63;4132364;28;19921;-76
2023/05/06 00:43:26;;;;;;;;;;;;;;;27.84;34.47;101234.78;4131416;28;19928;-76
2023/05/06 00:45:28;;;;;;;;;;;;;;;27.84;34.50;101233.94;4132373;28;19991;-76
2023/05/06 00:47:29;;;;;;;;;;;;;;;27.82;34.64;101233.25;4132327;28;20315;-76
2023/05/06 00:49:31;;;;;;;;;;;;;;;27.83;34.81;101229.56;4132298;28;20017;-77
2023/05/06 00:51:32;;;;;;;;;;;;;;;27.83;34.59;101224.97;4132424;28;19984;-76
2023/05/06 00:53:34;;;;;;;;;;;;;;;27.85;34.29;101222.97;4131031;28;19928;-75
2023/05/06 00:55:36;;;;;;;;;;;;;;;27.87;34.64;101230.94;4132438;28;19968;-76
2023/05/06 00:57:39;;;;;;;;;;;;;;;27.87;34.62;101231.75;4132225;28;19922;-76
2023/05/06 00:59:41;;;;;;;;;;;;;;;27.86;34.48;101230.09;4131671;28;19973;-77
2023/05/06 01:01:42;;;;;;;;;;;;;;;27.87;34.58;101230.94;4132227;28;20287;-77
2023/05/06 01:03:44;;;;;;;;;;;;;;;27.86;34.82;101230.09;4130995;28;20376;-76
2023/05/06 01:06:06;;;;;;;;;;;;;;;27.85;34.47;101231.09;4131949;28;19922;-76
2023/05/06 01:08:20;;;;;;;;;;;;;;;27.86;34.36;101227.38;4115682;28;20016;-77
2023/05/06 01:10:21;;;;;;;;;;;;;;;27.85;34.40;101220.28;4132148;28;20377;-76
2023/05/06 01:12:28;;;;;;;;;;;;;;;27.85;34.67;101222.97;4131494;28;20013;-77
2023/05/06 01:14:29;;;;;;;;;;;;;;;27.87;34.31;101223.66;4131782;28;19921;-76
2023/05/06 01:16:33;;;;;;;;;;;;;;;27.88;34.34;101224.53;4131703;28;20020;-77
2023/05/06 01:18:37;;;;;;;;;;;;;;;27.90;34.26;101226.06;4131922;28;19922;-77
2023/05/06 01:20:40;;;;;;;;;;;;;;;27.90;34.23;101227.94;4131580;28;19932;-77
2023/05/06 01:22:43;;;;;;;;;;;;;;;27.91;34.61;101226.91;4130535;28;20187;-77
2023/05/06 01:24:45;;;;;;;;;;;;;;;27.88;34.58;101219.13;4131712;28;19922;-77
2023/05/06 01:26:47;;;;;;;;;;;;;;;27.89;34.53;101223.53;4114865;28;19922;-77
2023/05/06 01:28:48;;;;;;;;;;;;;;;27.87;34.17;101220.94;4131910;28;19968;-77
2023/05/06 01:31:07;;;;;;;;;;;;;;;27.87;34.23;101220.13;4132071;28;19973;-77
2023/05/06 01:33:26;;;;;;;;;;;;;;;27.88;34.53;101216.41;4131048;28;19926;-76
2023/05/06 01:35:30;;;;;;;;;;;;;;;27.89;34.16;101215.41;4131945;28;19925;-76
2023/05/06 01:37:38;;;;;;;;;;;;;;;27.90;34.29;101220.66;4131357;28;19921;-76
2023/05/06 01:39:40;;;;;;;;;;;;;;;27.92;34.49;101223.19;4131534;28;19988;-76
2023/05/06 01:41:42;;;;;;;;;;;;;;;27.92;34.50;101211.53;4131497;28;19929;-76
2023/05/06 01:43:46;;;;;;;;;;;;;;;27.93;34.41;101218.66;4130943;28;19921;-76
2023/05/06 01:45:52;;;;;;;;;;;;;;;27.93;34.35;101213.25;4131568;28;19976;-76
2023/05/06 01:47:54;;;;;;;;;;;;;;;27.90;34.11;101215.25;4131759;28;19934;-77
2023/05/06 01:49:56;;;;;;;;;;;;;;;27.90;34.32;101214.41;4131802;28;19949;-77
2023/05/06 01:51:58;;;;;;;;;;;;;;;27.90;33.99;101207.13;4130268;28;19921;-76
2023/05/06 01:54:00;;;;;;;;;;;;;;;27.89;34.33;101205.44;4130630;28;19921;-77
2023/05/06 01:56:01;;;;;;;;;;;;;;;27.90;34.10;101206.31;4131608;28;19921;-77
2023/05/06 01:58:03;;;;;;;;;;;;;;;27.92;34.41;101204.25;4131657;28;20346;-77
2023/05/06 02:00:06;;;;;;;;;;;;;;;27.94;34.11;101201.44;4131589;28;19928;-76
2023/05/06 02:02:08;;;;;;;;;;;;;;;27.92;34.35;101196.16;4131423;28;20338;-77
2023/05/06 02:04:10;;;;;;;;;;;;;;;27.93;34.11;101197.84;4130622;28;19952;-76
2023/05/06 02:06:11;;;;;;;;;;;;;;;27.93;34.37;101194.31;4130855;28;19968;-76
2023/05/06 02:08:13;;;;;;;;;;;;;;;27.94;34.17;101198.72;4129829;28;19929;-76
2023/05/06 02:10:14;;;;;;;;;;;;;;;27.93;34.25;101197.84;4131625;28;20379;-77
2023/05/06 02:12:16;;;;;;;;;;;;;;;27.92;34.20;101198.84;4130764;28;19921;-76
2023/05/06 02:14:17;;;;;;;;;;;;;;;27.92;34.06;101200.72;4130427;28;19922;-76
2023/05/06 02:16:20;;;;;;;;;;;;;;;27.93;34.11;101202.44;4131287;28;19929;-77
2023/05/06 02:18:22;;;;;;;;;;;;;;;27.93;34.08;101207.84;4131293;28;20311;-77
2023/05/06 02:20:23;;;;;;;;;;;;;;;27.95;34.29;101211.22;4131106;28;19921;-76
2023/05/06 02:22:25;;;;;;;;;;;;;;;27.95;34.04;101208.50;4130734;28;19972;-77
2023/05/06 02:24:26;;;;;;;;;;;;;;;27.94;33.93;101207.66;4129028;28;19922;-77
2023/05/06 02:26:28;;;;;;;;;;;;;;;27.95;33.96;101212.06;4131050;28;19930;-77
2023/05/06 02:28:29;;;;;;;;;;;;;;;27.93;34.21;101214.06;4131363;28;19992;-77
2023/05/06 02:30:31;;;;;;;;;;;;;;;27.94;33.91;101209.53;4131155;28;19926;-77
2023/05/06 02:32:32;;;;;;;;;;;;;;;27.94;34.00;101209.53;4131438;28;19975;-77
2023/05/06 02:34:34;;;;;;;;;;;;;;;27.93;34.39;101200.56;4130479;28;19988;-78
2023/05/06 02:36:35;;;;;;;;;;;;;;;27.95;34.21;101203.09;4131326;28;19968;-77
2023/05/06 02:38:37;;;;;;;;;;;;;;;27.92;33.89;101200.72;4131247;28;20001;-78
2023/05/06 02:40:38;;;;;;;;;;;;;;;27.93;33.93;101207.84;4130808;28;19925;-78
2023/05/06 02:42:40;;;;;;;;;;;;;;;27.95;34.32;101200.41;4130605;28;19949;-77
2023/05/06 02:44:41;;;;;;;;;;;;;;;27.95;33.96;101206.66;4130567;28;19925;-79
2023/05/06 02:46:43;;;;;;;;;;;;;;;27.96;33.89;101210.22;4114172;28;19922;-77
2023/05/06 02:48:45;;;;;;;;;;;;;;;27.98;34.12;101208.22;4131149;28;19922;-76
2023/05/06 02:50:46;;;;;;;;;;;;;;;27.98;34.08;101211.75;4131027;28;19928;-77
2023/05/06 02:52:48;;;;;;;;;;;;;;;27.96;34.19;101205.66;4113140;28;19922;-77
2023/05/06 02:54:51;;;;;;;;;;;;;;;27.95;34.21;101206.66;4131092;28;20342;-76
2023/05/06 02:56:53;;;;;;;;;;;;;;;27.93;34.19;101195.16;4113854;28;19922;-76
2023/05/06 02:58:54;;;;;;;;;;;;;;;27.93;33.97;101192.44;4131563;28;19921;-77
2023/05/06 03:00:56;;;;;;;;;;;;;;;27.94;34.25;101201.44;4131250;28;20343;-77
2023/05/06 03:02:57;;;;;;;;;;;;;;;27.94;33.82;101188.75;4130316;28;19933;-76
2023/05/06 03:04:59;;;;;;;;;;;;;;;27.95;33.87;101187.75;4113390;28;19969;-77
2023/05/06 03:07:00;;;;;;;;;;;;;;;27.98;34.20;101200.09;4129502;28;19984;-77
2023/05/06 03:09:02;;;;;;;;;;;;;;;27.98;33.74;101190.13;4113618;28;20405;-77
2023/05/06 03:11:03;;;;;;;;;;;;;;;27.97;33.86;101185.75;4130565;28;19921;-77
2023/05/06 03:13:07;;;;;;;;;;;;;;;27.97;34.03;101191.16;4130225;28;20129;-77
2023/05/06 03:15:09;;;;;;;;;;;;;;;27.97;33.98;101191.16;4130749;28;19964;-76
2023/05/06 03:17:12;;;;;;;;;;;;;;;27.95;34.16;101190.44;4130794;28;20008;-77
2023/05/06 03:19:13;;;;;;;;;;;;;;;27.95;33.96;101189.59;4097415;29;19953;-76
2023/05/06 03:21:15;;;;;;;;;;;;;;;27.94;34.15;101190.63;4130887;28;19973;-77
2023/05/06 03:23:16;;;;;;;;;;;;;;;27.96;33.83;101185.88;4130368;28;20396;-77
2023/05/06 03:25:18;;;;;;;;;;;;;;;27.98;33.89;101189.28;4133269;28;20414;-77
2023/05/06 03:27:19;;;;;;;;;;;;;;;27.97;33.81;101187.59;4133338;28;19932;-76
2023/05/06 03:29:21;;;;;;;;;;;;;;;27.98;33.97;101186.59;4116117;28;19922;-77
2023/05/06 03:31:22;;;;;;;;;;;;;;;27.99;34.17;101178.31;4133523;28;19944;-76
2023/05/06 03:33:24;;;;;;;;;;;;;;;28.00;34.13;101184.56;4132750;28;20013;-76
2023/05/06 03:35:26;;;;;;;;;;;;;;;27.99;34.06;101175.59;4133800;28;19921;-77
2023/05/06 03:37:29;;;;;;;;;;;;;;;27.98;33.94;101183.88;4133427;28;19934;-77
2023/05/06 03:39:31;;;;;;;;;;;;;;;27.98;34.18;101184.72;4133458;28;20013;-77
2023/05/06 03:41:32;;;;;;;;;;;;;;;27.96;33.87;101185.88;4132294;28;19929;-77
2023/05/06 03:43:34;;;;;;;;;;;;;;;27.96;34.14;101183.19;4132114;28;19921;-77
2023/05/06 03:45:36;;;;;;;;;;;;;;;27.84;34.09;101164.53;4133370;28;20295;-76
2023/05/06 03:47:38;;;;;;;;;;;;;;;27.98;33.97;101189.28;4133425;28;19929;-78
2023/05/06 03:49:40;;;;;;;;;;;;;;;27.98;34.12;101181.16;4133626;28;20372;-76
2023/05/06 03:51:41;;;;;;;;;;;;;;;28.00;34.12;101179.16;4133325;28;19921;-77
2023/05/06 03:53:42;;;;;;;;;;;;;;;27.99;34.04;101177.47;4132301;28;19926;-77
2023/05/06 03:55:44;;;;;;;;;;;;;;;27.99;33.77;101180.16;4133202;28;19926;-76
2023/05/06 03:57:45;;;;;;;;;;;;;;;27.99;33.74;101181.00;4133321;28;20303;-77
2023/05/06 03:59:47;;;;;;;;;;;;;;;27.98;33.81;101184.72;4132156;28;19984;-76
2023/05/06 04:01:49;;;;;;;;;;;;;;;27.97;34.04;101187.59;4133291;28;20013;-76
2023/05/06 04:03:53;;;;;;;;;;;;;;;27.98;34.09;101186.59;4131885;28;19921;-77
2023/05/06 04:05:54;;;;;;;;;;;;;;;27.97;33.80;101188.44;4133482;28;19949;-76
2023/05/06 04:07:56;;;;;;;;;;;;;;;27.99;33.75;101188.28;4132999;28;19922;-76
2023/05/06 04:09:57;;;;;;;;;;;;;;;27.99;33.66;101186.41;4132745;28;19926;-76
2023/05/06 04:11:59;;;;;;;;;;;;;;;27.99;34.00;101186.41;4132778;28;19997;-76
2023/05/06 04:14:00;;;;;;;;;;;;;;;28.00;33.76;101188.13;4131782;28;19932;-76
2023/05/06 04:16:03;;;;;;;;;;;;;;;28.01;33.93;101180.84;4132940;28;19925;-76
2023/05/06 04:18:06;;;;;;;;;;;;;;;28.02;33.97;101177.13;4115256;28;19934;-76
2023/05/06 04:20:10;;;;;;;;;;;;;;;28.01;34.09;101172.72;4132830;28;19957;-76
2023/05/06 04:22:11;;;;;;;;;;;;;;;27.99;33.97;101177.47;4132756;28;20021;-77
2023/05/06 04:24:15;;;;;;;;;;;;;;;27.99;34.12;101180.16;4132159;28;20387;-77
2023/05/06 04:26:16;;;;;;;;;;;;;;;27.98;33.63;101175.75;4133294;28;19926;-78
2023/05/06 04:28:18;;;;;;;;;;;;;;;27.98;33.97;101170.34;4132967;28;19922;-77
2023/05/06 04:30:20;;;;;;;;;;;;;;;27.97;34.03;101163.25;4133219;28;19922;-77
2023/05/06 04:32:24;;;;;;;;;;;;;;;27.99;33.80;101166.66;4131603;28;20032;-77
2023/05/06 04:34:26;;;;;;;;;;;;;;;28.00;33.88;101162.94;4131827;28;19961;-77
2023/05/06 04:36:28;;;;;;;;;;;;;;;28.00;34.01;101165.66;4133033;28;20354;-77
2023/05/06 04:38:30;;;;;;;;;;;;;;;28.02;33.58;101163.63;4133306;28;19922;-77
2023/05/06 04:40:34;;;;;;;;;;;;;;;28.01;33.82;101164.63;4133115;28;20001;-77
2023/05/06 04:42:35;;;;;;;;;;;;;;;28.01;33.94;101161.91;4132996;28;19922;-77
2023/05/06 04:44:37;;;;;;;;;;;;;;;27.99;33.90;101164.78;4131299;28;19926;-77
2023/05/06 04:46:38;;;;;;;;;;;;;;;27.99;34.01;101162.09;4132131;28;19929;-77
2023/05/06 04:48:40;;;;;;;;;;;;;;;27.98;34.12;101157.69;4132878;28;19929;-77
2023/05/06 04:50:41;;;;;;;;;;;;;;;28.00;33.73;101163.78;4133395;28;19926;-77
2023/05/06 04:52:43;;;;;;;;;;;;;;;27.99;33.69;101162.09;4133042;28;19925;-77
2023/05/06 04:54:45;;;;;;;;;;;;;;;28.01;33.62;101160.06;4131274;28;20021;-77
2023/05/06 04:56:46;;;;;;;;;;;;;;;28.04;33.75;101157.03;4132208;28;20252;-77
2023/05/06 04:58:48;;;;;;;;;;;;;;;28.04;33.69;101161.59;4132519;28;20279;-77
2023/05/06 05:00:49;;;;;;;;;;;;;;;28.02;33.58;101161.78;4133263;28;19921;-77
2023/05/06 05:02:51;;;;;;;;;;;;;;;28.04;33.71;101164.31;4133556;28;19928;-76
2023/05/06 05:04:53;;;;;;;;;;;;;;;28.04;33.70;101167.03;4133722;28;19968;-76
2023/05/06 05:06:54;;;;;;;;;;;;;;;28.03;33.92;101170.72;4134547;28;20333;-77
2023/05/06 05:08:56;;;;;;;;;;;;;;;28.03;34.08;101170.72;4135021;28;19961;-77
2023/05/06 05:10:59;;;;;;;;;;;;;;;28.01;33.91;101180.84;4132161;28;19945;-76
2023/05/06 05:13:01;;;;;;;;;;;;;;;27.99;33.65;101178.31;4114671;28;20387;-76
2023/05/06 05:15:03;;;;;;;;;;;;;;;28.02;33.83;101182.53;4143129;28;19947;-76
2023/05/06 05:17:04;;;;;;;;;;;;;;;28.04;33.88;101178.66;4150462;28;19909;-77
2023/05/06 05:19:06;;;;;;;;;;;;;;;28.04;33.78;101178.66;4151115;28;19910;-77
2023/05/06 05:21:10;;;;;;;;;;;;;;;28.07;33.76;101179.41;4149365;28;19968;-78
2023/05/06 05:23:11;;;;;;;;;;;;;;;28.06;33.65;101181.28;4147583;28;19921;-77
2023/05/06 05:25:13;;;;;;;;;;;;;;;28.08;33.92;101192.75;4146195;28;19925;-77
2023/05/06 05:27:15;;;;;;;;;;;;;;;28.08;33.89;101183.81;4133662;28;19969;-77
2023/05/06 05:29:17;;;;;;;;;;;;;;;28.08;33.87;101195.47;4131276;28;19925;-78
2023/05/06 05:31:18;;;;;;;;;;;;;;;28.06;33.60;101197.50;4115671;28;20017;-77
2023/05/06 05:33:20;;;;;;;;;;;;;;;28.07;33.58;101199.19;4115206;28;19926;-77
2023/05/06 05:35:21;;;;;;;;;;;;;;;28.08;33.80;101197.31;4123816;28;19922;-77
2023/05/06 05:37:23;;;;;;;;;;;;;;;28.09;33.91;101199.03;4132091;28;19981;-78
2023/05/06 05:39:25;;;;;;;;;;;;;;;28.12;33.86;101198.69;4130886;28;19913;-77
2023/05/06 05:41:26;;;;;;;;;;;;;;;28.13;33.84;101200.41;4114274;28;19955;-78
2023/05/06 05:43:28;;;;;;;;;;;;;;;28.12;33.78;101202.25;4127243;28;19922;-77
2023/05/06 05:45:29;;;;;;;;;;;;;;;28.13;33.95;101203.09;4115872;28;19921;-77
2023/05/06 05:47:31;;;;;;;;;;;;;;;28.10;33.85;101206.97;4115283;28;20414;-76
2023/05/06 05:49:33;;;;;;;;;;;;;;;28.08;33.98;101206.28;4115611;28;19925;-77
2023/05/06 05:51:34;;;;;;;;;;;;;;;28.12;33.93;101202.25;4098166;29;20316;-77
2023/05/06 05:53:36;;;;;;;;;;;;;;;28.11;33.58;101205.13;4114275;28;19926;-77
2023/05/06 05:55:38;;;;;;;;;;;;;;;28.11;33.58;101199.72;4115183;28;19922;-75
2023/05/06 05:57:39;;;;;;;;;;;;;;;28.11;33.67;101200.56;4115296;28;19996;-76
2023/05/06 05:59:41;;;;;;;;;;;;;;;28.14;33.89;101204.81;4115080;28;20028;-77
2023/05/06 06:01:42;;;;;;;;;;;;;;;28.14;33.72;101205.66;4115386;28;19926;-77
2023/05/06 06:03:44;;;;;;;;;;;;;;;28.15;33.83;101209.22;4114257;28;20585;-77
2023/05/06 06:05:48;;;;;;;;;;;;;;;28.14;33.73;101212.91;4115053;28;19922;-77
2023/05/06 06:07:49;;;;;;;;;;;;;;;28.15;33.72;101214.63;4116121;28;19922;-77
2023/05/06 06:09:51;;;;;;;;;;;;;;;28.14;33.59;101211.06;4115878;28;19922;-77
2023/05/06 06:11:53;;;;;;;;;;;;;;;28.15;33.97;101211.91;4115464;28;19949;-78
2023/05/06 06:13:54;;;;;;;;;;;;;;;28.17;33.80;101216.16;4114690;28;20347;-78
2023/05/06 06:15:56;;;;;;;;;;;;;;;28.18;33.48;101217.03;4115647;28;20001;-77
2023/05/06 06:17:57;;;;;;;;;;;;;;;28.18;33.67;101222.44;4115698;28;19926;-77
2023/05/06 06:20:00;;;;;;;;;;;;;;;28.19;33.59;101224.09;4115537;28;19976;-77
2023/05/06 06:22:01;;;;;;;;;;;;;;;28.18;33.59;101230.53;4115049;28;19973;-77
2023/05/06 06:24:03;;;;;;;;;;;;;;;28.17;33.44;101224.25;4114193;28;20419;-77
2023/05/06 06:26:05;;;;;;;;;;;;;;;28.19;33.47;101232.22;4123578;28;19925;-76
2023/05/06 06:28:07;;;;;;;;;;;;;;;28.19;33.53;101224.09;4130880;28;20012;-77
2023/05/06 06:30:08;;;;;;;;;;;;;;;28.20;33.69;101220.41;4130882;28;20012;-76
2023/05/06 06:32:10;;;;;;;;;;;;;;;28.20;33.43;101225.81;4130936;28;19925;-77
2023/05/06 06:34:12;;;;;;;;;;;;;;;28.19;33.53;101224.97;4130458;28;19926;-77
2023/05/06 06:36:13;;;;;;;;;;;;;;;28.19;33.59;101224.09;4131687;28;19926;-77
2023/05/06 06:38:15;;;;;;;;;;;;;;;28.20;33.53;101223.97;4131333;28;19984;-77
2023/05/06 06:40:16;;;;;;;;;;;;;;;28.22;33.69;101221.09;4131433;28;19953;-77
2023/05/06 06:42:18;;;;;;;;;;;;;;;28.24;33.83;101220.94;4129862;28;19921;-77
2023/05/06 06:44:19;;;;;;;;;;;;;;;28.21;33.87;101216.69;4130486;28;19922;-77
2023/05/06 06:46:21;;;;;;;;;;;;;;;28.25;33.86;101222.63;4131478;28;19922;-78
2023/05/06 06:48:22;;;;;;;;;;;;;;;28.26;33.58;101208.94;4131026;28;19922;-77
2023/05/06 06:50:24;;;;;;;;;;;;;;;28.28;33.54;101212.34;4131437;28;19940;-77
2023/05/06 06:52:26;;;;;;;;;;;;;;;28.29;33.78;101205.06;4131174;28;19925;-77
2023/05/06 06:54:27;;;;;;;;;;;;;;;28.31;33.79;101211.16;4130369;28;20034;-77
2023/05/06 06:56:30;;;;;;;;;;;;;;;28.31;33.77;101212.03;4131039;28;19922;-77
2023/05/06 06:58:32;;;;;;;;;;;;;;;28.31;33.57;101211.16;4132704;28;19944;-77
2023/05/06 07:00:33;;;;;;;;;;;;;;;28.23;33.40;101203.84;4134430;28;19999;-77
2023/05/06 07:02:35;;;;;;;;;;;;;;;28.31;33.70;101217.44;4134551;28;19922;-78
2023/05/06 07:04:36;;;;;;;;;;;;;;;28.30;33.57;101221.16;4133323;28;20371;-78
2023/05/06 07:06:38;;;;;;;;;;;;;;;28.30;33.59;101229.25;4134303;28;19926;-78
2023/05/06 07:08:40;;;;;;;;;;;;;;;28.31;33.55;101216.56;4134408;28;20012;-77
2023/05/06 07:10:41;;;;;;;;;;;;;;;28.29;33.57;101221.28;4134014;28;19922;-77
2023/05/06 07:12:43;;;;;;;;;;;;;;;28.31;33.77;101224.69;4134111;28;20381;-77
2023/05/06 07:14:44;;;;;;;;;;;;;;;28.31;33.79;101220.16;4133357;28;19925;-78
2023/05/06 07:16:46;;;;;;;;;;;;;;;28.32;33.67;101219.13;4134148;28;19922;-78
2023/05/06 07:18:52;;;;;;;;;;;;;;;28.33;33.64;101222.69;4134006;28;20307;-78
2023/05/06 07:20:54;;;;;;;;;;;;;;;28.33;33.48;101218.09;4134050;28;19925;-78
2023/05/06 07:22:55;;;;;;;;;;;;;;;28.33;33.43;101222.69;4133671;28;20358;-78
2023/05/06 07:24:57;;;;;;;;;;;;;;;28.35;33.76;101231.50;4132519;28;19928;-78
2023/05/06 07:26:59;;;;;;;;;;;;;;;28.35;33.42;101224.22;4134002;28;20414;-79
2023/05/06 07:29:03;;;;;;;;;;;;;;;28.37;33.63;101224.06;4134116;28;19928;-79
2023/05/06 07:31:04;;;;;;;;;;;;;;;28.38;33.52;101223.06;4134015;28;19937;-79
2023/05/06 07:33:06;;;;;;;;;;;;;;;28.36;33.42;101217.81;4133856;28;20004;-78
2023/05/06 07:35:08;;;;;;;;;;;;;;;28.38;33.78;101217.63;4132487;28;19922;-78
2023/05/06 07:37:10;;;;;;;;;;;;;;;28.39;33.46;101223.91;4133429;28;19921;-79
2023/05/06 07:39:12;;;;;;;;;;;;;;;28.40;33.33;101226.44;4132259;28;20016;-79
2023/05/06 07:41:14;;;;;;;;;;;;;;;28.42;33.29;101224.41;4133503;28;20020;-77
2023/05/06 07:43:16;;;;;;;;;;;;;;;28.42;33.57;101224.41;4133905;28;19957;-78
2023/05/06 07:45:18;;;;;;;;;;;;;;;28.43;33.68;101228.00;4132732;28;19934;-78
2023/05/06 07:47:27;;;;;;;;;;;;;;;28.42;33.65;101229.81;4133661;28;20418;-78
2023/05/06 07:49:32;;;;;;;;;;;;;;;28.43;33.76;101228.00;4116286;28;19949;-79
2023/05/06 07:51:33;;;;;;;;;;;;;;;28.42;33.39;101229.81;4133532;28;19971;-79
2023/05/06 07:53:36;;;;;;;;;;;;;;;28.45;33.51;101232.22;4132167;28;19921;-79
2023/05/06 07:55:38;;;;;;;;;;;;;;;28.47;33.28;101232.06;4132391;28;20406;-79
2023/05/06 07:57:40;;;;;;;;;;;;;;;28.46;33.28;101231.22;4133443;28;20077;-79
2023/05/06 07:59:51;;;;;;;;;;;;;;;28.45;33.78;101240.34;4133483;28;19943;-79
2023/05/06 08:01:52;;;;;;;;;;;;;;;28.46;33.35;101241.19;4116331;28;20031;-77
2023/05/06 08:03:54;;;;;;;;;;;;;;;28.42;33.58;101240.66;4133033;28;19926;-78
2023/05/06 08:05:55;;;;;;;;;;;;;;;28.42;33.52;101247.94;4133096;28;20294;-78
2023/05/06 08:07:57;;;;;;;;;;;;;;;28.42;33.42;101237.09;4133418;28;19925;-78
2023/05/06 08:10:01;;;;;;;;;;;;;;;28.40;33.42;101242.69;4133014;28;19922;-78
2023/05/06 08:12:03;;;;;;;;;;;;;;;28.42;33.33;101245.22;4133397;28;19928;-79
2023/05/06 08:14:05;;;;;;;;;;;;;;;28.43;33.57;101238.81;4132675;28;20005;-79
2023/05/06 08:16:06;;;;;;;;;;;;;;;28.43;33.39;101244.22;4132974;28;20016;-79
2023/05/06 08:18:08;;;;;;;;;;;;;;;28.45;33.63;101242.22;4133069;28;19921;-77
2023/05/06 08:20:22;;;;;;;;;;;;;;;28.44;33.29;101241.34;4132970;28;19972;-78
2023/05/06 08:22:24;;;;;;;;;;;;;;;28.43;33.61;101241.50;4131933;28;20315;-78
2023/05/06 08:24:26;;;;;;;;;;;;;;;28.44;33.33;101238.63;4131921;28;19976;-79
2023/05/06 08:26:28;;;;;;;;;;;;;;;28.43;33.78;101238.81;4133012;28;20401;-77
2023/05/06 08:28:30;;;;;;;;;;;;;;;28.40;33.59;101237.28;4133109;28;19968;-79
2023/05/06 08:30:32;;;;;;;;;;;;;;;28.42;33.42;101239.81;4133030;28;19921;-79
2023/05/06 08:32:33;;;;;;;;;;;;;;;28.43;33.52;101242.34;4132908;28;20453;-79
2023/05/06 08:34:35;;;;;;;;;;;;;;;28.32;33.51;101213.69;4132000;28;19957;-80
2023/05/06 08:36:36;;;;;;;;;;;;;;;28.47;33.49;101229.34;4132700;28;20000;-78
2023/05/06 08:38:38;;;;;;;;;;;;;;;28.49;33.25;101233.59;4132549;28;20340;-79
2023/05/06 08:40:43;;;;;;;;;;;;;;;28.49;33.24;101228.19;4115675;28;19969;-78
2023/05/06 08:42:46;;;;;;;;;;;;;;;28.51;33.26;101238.88;4132611;28;20343;-78
2023/05/06 08:44:50;;;;;;;;;;;;;;;28.52;33.31;101237.88;4131976;28;19922;-78
2023/05/06 08:46:52;;;;;;;;;;;;;;;28.51;33.27;101231.59;4132834;28;19929;-79
2023/05/06 08:48:53;;;;;;;;;;;;;;;28.51;33.19;101234.28;4132645;28;20406;-80
2023/05/06 08:50:56;;;;;;;;;;;;;;;28.51;33.55;101230.75;4132803;28;19972;-79
2023/05/06 08:52:59;;;;;;;;;;;;;;;28.52;33.30;101229.75;4132222;28;19925;-79
2023/05/06 08:55:03;;;;;;;;;;;;;;;28.52;33.25;101233.28;4131703;28;19922;-79
2023/05/06 08:57:07;;;;;;;;;;;;;;;28.53;33.22;101235.00;4132683;28;19957;-79
2023/05/06 08:59:16;;;;;;;;;;;;;;;28.54;33.11;101233.13;4132375;28;19981;-78
2023/05/06 09:01:18;;;;;;;;;;;;;;;28.56;33.21;101233.81;4132613;28;20360;-79
2023/05/06 09:03:19;;;;;;;;;;;;;;;28.55;33.17;101231.28;4132243;28;19922;-79
2023/05/06 09:05:21;;;;;;;;;;;;;;;28.55;33.29;101231.28;4130215;28;20008;-79
2023/05/06 09:07:23;;;;;;;;;;;;;;;28.55;33.33;101231.28;4131692;28;19926;-80
2023/05/06 09:09:25;;;;;;;;;;;;;;;28.56;33.14;101236.53;4132159;28;19926;-79
2023/05/06 09:11:28;;;;;;;;;;;;;;;28.57;33.50;101231.94;4132054;28;19956;-79
2023/05/06 09:13:30;;;;;;;;;;;;;;;28.58;33.38;101228.22;4131975;28;20313;-79
2023/05/06 09:15:41;;;;;;;;;;;;;;;28.58;33.13;101225.53;4130838;28;19921;-80
2023/05/06 09:17:42;;;;;;;;;;;;;;;28.59;33.36;101229.94;4129780;28;20347;-79
2023/05/06 09:19:44;;;;;;;;;;;;;;;28.59;33.12;101233.47;4115532;28;20402;-71
2023/05/06 09:21:46;;;;;;;;;;;;;;;28.51;33.58;101231.59;4112941;28;19936;-69
2023/05/06 09:23:48;;;;;;;;;;;;;;;28.48;33.27;101228.34;4117068;28;19922;-69
2023/05/06 09:25:50;;;;;;;;;;;;;;;28.33;33.37;101234.34;4123680;28;19926;-70
2023/05/06 09:28:01;;;;;;;;;;;;;;;28.23;33.91;101232.75;4130582;28;19922;-70
2023/05/06 09:30:06;;;;;;;;;;;;;;;28.16;33.63;101232.53;4131931;28;19950;-73
2023/05/06 09:32:10;;;;;;;;;;;;;;;28.13;34.09;101232.84;4116729;28;19929;-73
2023/05/06 09:34:12;;;;;;;;;;;;;;;28.08;33.94;101237.88;4115000;28;19949;-72
2023/05/06 09:36:14;;;;;;;;;;;;;;;27.98;34.19;101229.84;4115112;28;19922;-70
2023/05/06 09:38:16;;;;;;;;;;;;;;;27.92;34.06;101227.75;4115801;28;20432;-69
2023/05/06 09:40:17;;;;;;;;;;;;;;;27.83;34.31;101234.97;4127586;28;19925;-67
2023/05/06 09:42:21;;;;;;;;;;;;;;;27.82;34.25;101228.69;4131649;28;19921;-70
2023/05/06 09:44:23;;;;;;;;;;;;;;;27.82;34.42;101230.56;4130614;28;19921;-69
2023/05/06 09:46:25;;;;;;;;;;;;;;;27.79;34.32;101230.84;4131844;28;19921;-72
2023/05/06 09:48:31;;;;;;;;;;;;;;;27.68;34.49;101221.13;4126246;28;20410;-71
2023/05/06 09:50:32;;;;;;;;;;;;;;;27.66;34.51;101225.84;4113457;28;19926;-71
2023/05/06 09:52:34;;;;;;;;;;;;;;;27.63;34.48;101218.88;4114692;28;19921;-71
2023/05/06 09:54:36;;;;;;;;;;;;;;;27.62;34.67;101222.63;4113763;28;19926;-70
2023/05/06 09:56:37;;;;;;;;;;;;;;;27.60;34.72;101219.22;4120737;28;19932;-70
2023/05/06 09:58:39;;;;;;;;;;;;;;;27.57;34.85;101214.09;4130599;28;19929;-69
2023/05/06 10:00:42;;;;;;;;;;;;;;;27.52;34.49;101211.88;4130600;28;19921;-71
2023/05/06 10:02:44;;;;;;;;;;;;;;;27.46;34.68;101208.94;4130856;28;19922;-72
2023/05/06 10:04:47;;;;;;;;;;;;;;;27.46;34.52;101209.78;4129380;28;20310;-74
2023/05/06 10:06:50;;;;;;;;;;;;;;;27.42;34.44;101206.53;4130424;28;19922;-75
2023/05/06 10:08:53;;;;;;;;;;;;;;;27.35;34.59;101202.75;4131025;28;20025;-74
2023/05/06 10:10:55;;;;;;;;;;;;;;;27.29;34.71;101205.19;4131064;28;20394;-80
2023/05/06 10:12:57;;;;;;;;;;;;;;;27.33;34.86;101206.56;4130767;28;19929;-75
2023/05/06 10:14:59;;;;;;;;;;;;;;;27.30;34.91;101199.63;4128155;28;19922;-78
2023/05/06 10:17:01;;;;;;;;;;;;;;;27.24;34.86;101197.53;4130665;28;19928;-80
2023/05/06 10:19:05;;;;;;;;;;;;;;;27.24;34.89;101202.94;4130933;28;20383;-74
2023/05/06 10:21:09;;;;;;;;;;;;;;;27.22;34.75;101203.09;4131126;28;20012;-77
2023/05/06 10:23:11;;;;;;;;;;;;;;;27.21;35.05;101193.28;4130365;28;19925;-74
2023/05/06 10:25:18;;;;;;;;;;;;;;;27.19;35.04;101197.97;4128838;28;19928;-75
2023/05/06 10:27:22;;;;;;;;;;;;;;;27.19;34.88;101202.56;4130057;28;19929;-77